createdAt,value
2017-08-26T00:02:02.129Z,19.70
2017-08-26T00:04:29.703Z,19.70
2017-08-26T00:06:57.304Z,19.70
2017-08-26T00:09:24.873Z,19.60
2017-08-26T00:11:52.421Z,19.60
2017-08-26T00:14:20.022Z,19.60
2017-08-26T00:16:47.611Z,19.60
2017-08-26T00:19:15.182Z,19.50
2017-08-26T00:21:42.769Z,19.60
2017-08-26T00:24:10.466Z,19.60
2017-08-26T00:26:38.057Z,19.50
2017-08-26T00:29:05.658Z,19.50
2017-08-26T00:31:33.241Z,19.50
2017-08-26T00:34:00.818Z,19.50
2017-08-26T00:36:28.389Z,19.60
2017-08-26T00:38:56.379Z,19.60
2017-08-26T00:41:24.018Z,19.60
2017-08-26T00:43:51.591Z,19.60
2017-08-26T00:46:19.170Z,19.60
2017-08-26T00:48:46.822Z,19.70
2017-08-26T00:51:14.382Z,19.60
2017-08-26T00:53:41.962Z,19.60
2017-08-26T00:56:09.753Z,19.60
2017-08-26T00:58:37.345Z,19.60
2017-08-26T01:01:04.923Z,19.50
2017-08-26T01:03:32.537Z,19.50
2017-08-26T01:06:00.128Z,19.60
2017-08-26T01:08:28.457Z,19.40
2017-08-26T01:10:56.058Z,19.40
2017-08-26T01:13:23.617Z,19.30
2017-08-26T01:15:51.172Z,19.20
2017-08-26T01:18:18.747Z,19.10
2017-08-26T01:20:46.542Z,19.00
2017-08-26T01:23:14.150Z,18.90
2017-08-26T01:25:41.749Z,18.90
2017-08-26T01:28:09.320Z,18.90
2017-08-26T01:30:36.878Z,18.80
2017-08-26T01:33:04.478Z,18.80
2017-08-26T01:35:32.044Z,18.80
2017-08-26T01:37:59.620Z,18.70
2017-08-26T01:40:27.217Z,18.70
2017-08-26T01:42:54.783Z,18.70
2017-08-26T01:45:22.355Z,18.70
2017-08-26T01:47:49.915Z,18.60
2017-08-26T01:50:17.511Z,18.60
2017-08-26T01:52:45.074Z,18.50
2017-08-26T01:55:12.657Z,18.50
2017-08-26T01:57:41.010Z,18.40
2017-08-26T02:00:08.590Z,18.40
2017-08-26T02:02:36.229Z,18.40
2017-08-26T02:05:03.798Z,18.50
2017-08-26T02:07:31.358Z,18.50
2017-08-26T02:09:58.929Z,18.40
2017-08-26T02:12:26.505Z,18.40
2017-08-26T02:14:54.177Z,18.40
2017-08-26T02:17:21.713Z,18.40
2017-08-26T02:19:49.281Z,18.30
2017-08-26T02:22:16.840Z,18.20
2017-08-26T02:24:44.414Z,18.30
2017-08-26T02:27:11.968Z,18.20
2017-08-26T02:29:39.546Z,18.20
2017-08-26T02:32:07.113Z,18.20
2017-08-26T02:34:34.689Z,18.20
2017-08-26T02:37:02.260Z,18.30
2017-08-26T02:39:29.825Z,18.30
2017-08-26T02:41:57.395Z,18.30
2017-08-26T02:44:24.989Z,18.30
2017-08-26T02:46:52.549Z,18.20
2017-08-26T02:49:20.892Z,18.20
2017-08-26T02:51:48.449Z,18.20
2017-08-26T02:54:16.038Z,18.20
2017-08-26T02:56:43.593Z,18.20
2017-08-26T02:59:11.186Z,18.10
2017-08-26T03:01:38.738Z,18.10
2017-08-26T03:04:06.362Z,18.10
2017-08-26T03:06:33.938Z,18.10
2017-08-26T03:09:01.497Z,18.10
2017-08-26T03:11:29.054Z,18.10
2017-08-26T03:13:56.611Z,18.10
2017-08-26T03:16:24.183Z,18.10
2017-08-26T03:18:52.511Z,18.20
2017-08-26T03:21:20.198Z,18.10
2017-08-26T03:23:47.777Z,18.10
2017-08-26T03:26:15.369Z,18.20
2017-08-26T03:28:42.952Z,18.30
2017-08-26T03:31:10.519Z,18.30
2017-08-26T03:33:38.126Z,18.40
2017-08-26T03:36:05.694Z,18.40
2017-08-26T03:38:33.250Z,18.50
2017-08-26T03:41:00.854Z,18.50
2017-08-26T03:43:28.429Z,18.40
2017-08-26T03:45:56.013Z,18.40
2017-08-26T03:48:23.602Z,18.40
2017-08-26T03:50:51.176Z,18.30
2017-08-26T03:53:18.778Z,18.30
2017-08-26T03:55:46.335Z,18.30
2017-08-26T03:58:13.901Z,18.30
2017-08-26T04:00:41.486Z,18.30
2017-08-26T04:03:09.057Z,18.40
2017-08-26T04:05:36.628Z,18.40
2017-08-26T04:08:04.282Z,18.30
2017-08-26T04:10:31.861Z,18.30
2017-08-26T04:12:59.422Z,18.30
2017-08-26T04:15:27.023Z,18.20
2017-08-26T04:17:54.577Z,18.20
2017-08-26T04:20:22.130Z,18.30
2017-08-26T04:22:49.701Z,18.30
2017-08-26T04:25:17.266Z,18.50
2017-08-26T04:27:44.846Z,18.60
2017-08-26T04:30:12.474Z,18.60
2017-08-26T04:32:40.058Z,18.70
2017-08-26T04:35:07.674Z,18.80
2017-08-26T04:37:35.262Z,18.80
2017-08-26T04:40:02.839Z,18.90
2017-08-26T04:42:30.409Z,18.90
2017-08-26T04:44:58.109Z,19.00
2017-08-26T04:47:25.677Z,19.00
2017-08-26T04:49:53.235Z,19.00
2017-08-26T04:52:20.810Z,19.10
2017-08-26T04:54:49.129Z,19.20
2017-08-26T04:57:16.719Z,19.20
2017-08-26T04:59:44.278Z,19.20
2017-08-26T05:02:11.865Z,19.20
2017-08-26T05:04:39.421Z,19.30
2017-08-26T05:07:07.013Z,19.20
2017-08-26T05:09:34.681Z,19.20
2017-08-26T05:12:02.253Z,19.20
2017-08-26T05:14:29.845Z,19.30
2017-08-26T05:16:57.445Z,19.30
2017-08-26T05:19:25.032Z,19.30
2017-08-26T05:21:52.594Z,19.30
2017-08-26T05:24:20.225Z,19.30
2017-08-26T05:26:47.793Z,19.40
2017-08-26T05:29:15.381Z,19.40
2017-08-26T05:31:42.937Z,19.50
2017-08-26T05:34:10.530Z,19.50
2017-08-26T05:36:38.310Z,19.60
2017-08-26T05:39:05.916Z,19.60
2017-08-26T05:41:33.586Z,19.60
2017-08-26T05:44:01.162Z,19.60
2017-08-26T05:46:28.762Z,19.70
2017-08-26T05:48:56.328Z,19.70
2017-08-26T05:51:23.905Z,19.80
2017-08-26T05:53:51.473Z,19.90
2017-08-26T05:56:19.049Z,20.00
2017-08-26T05:58:46.650Z,20.10
2017-08-26T06:01:14.282Z,20.20
2017-08-26T06:03:41.862Z,20.30
2017-08-26T06:06:09.448Z,20.40
2017-08-26T06:08:37.110Z,20.50
2017-08-26T06:11:04.687Z,20.50
2017-08-26T06:13:32.291Z,20.70
2017-08-26T06:15:59.881Z,20.90
2017-08-26T06:18:27.454Z,21.10
2017-08-26T06:20:55.074Z,21.30
2017-08-26T06:23:22.646Z,21.70
2017-08-26T06:25:50.226Z,22.10
2017-08-26T06:28:17.801Z,23.10
2017-08-26T06:30:45.423Z,24.20
2017-08-26T06:33:13.062Z,25.40
2017-08-26T06:35:40.631Z,26.50
2017-08-26T06:38:08.228Z,27.50
2017-08-26T06:40:35.796Z,28.10
2017-08-26T06:43:03.370Z,28.70
2017-08-26T06:45:30.937Z,29.50
2017-08-26T06:47:58.528Z,29.90
2017-08-26T06:50:26.106Z,30.40
2017-08-26T06:52:53.677Z,30.60
2017-08-26T06:55:21.281Z,30.80
2017-08-26T06:57:48.922Z,31.50
2017-08-26T07:00:16.486Z,31.90
2017-08-26T07:02:44.062Z,32.10
2017-08-26T07:05:11.630Z,32.50
2017-08-26T07:07:39.194Z,33.40
2017-08-26T07:10:06.774Z,34.00
2017-08-26T07:12:35.095Z,34.80
2017-08-26T07:15:02.850Z,34.80
2017-08-26T07:17:30.432Z,35.30
2017-08-26T07:19:58.024Z,35.40
2017-08-26T07:22:25.590Z,35.20
2017-08-26T07:24:53.161Z,35.30
2017-08-26T07:27:20.758Z,35.30
2017-08-26T07:29:48.315Z,35.70
2017-08-26T07:32:15.877Z,36.00
2017-08-26T07:34:43.454Z,36.40
2017-08-26T07:37:11.071Z,36.50
2017-08-26T07:39:38.626Z,36.60
2017-08-26T07:42:06.202Z,35.60
2017-08-26T07:44:33.773Z,35.00
2017-08-26T07:47:01.337Z,34.80
2017-08-26T07:49:28.935Z,34.90
2017-08-26T07:51:56.494Z,34.70
2017-08-26T07:54:24.139Z,34.90
2017-08-26T07:56:51.722Z,35.00
2017-08-26T07:59:19.335Z,34.30
2017-08-26T08:01:46.919Z,33.50
2017-08-26T08:04:14.485Z,32.50
2017-08-26T08:06:42.058Z,31.60
2017-08-26T08:09:09.629Z,30.80
2017-08-26T08:11:37.178Z,30.20
2017-08-26T08:14:04.762Z,29.70
2017-08-26T08:16:32.320Z,29.10
2017-08-26T08:18:59.904Z,28.60
2017-08-26T08:21:27.476Z,28.20
2017-08-26T08:23:55.065Z,28.00
2017-08-26T08:26:22.633Z,27.80
2017-08-26T08:28:50.197Z,27.70
2017-08-26T08:31:17.762Z,27.70
2017-08-26T08:33:45.346Z,27.70
2017-08-26T08:36:12.926Z,27.50
2017-08-26T08:38:40.482Z,27.60
2017-08-26T08:41:08.841Z,27.60
2017-08-26T08:43:36.406Z,27.50
2017-08-26T08:46:03.986Z,27.40
2017-08-26T08:48:31.569Z,27.40
2017-08-26T08:50:59.138Z,27.40
2017-08-26T08:53:26.702Z,27.50
2017-08-26T08:55:54.262Z,27.60
2017-08-26T08:58:21.890Z,27.80
2017-08-26T09:00:49.450Z,27.70
2017-08-26T09:03:17.029Z,27.80
2017-08-26T09:05:44.629Z,28.00
2017-08-26T09:08:12.193Z,28.00
2017-08-26T09:10:39.776Z,28.10
2017-08-26T09:13:07.297Z,28.00
2017-08-26T09:15:34.867Z,28.20
2017-08-26T09:18:02.426Z,28.60
2017-08-26T09:20:30.004Z,28.80
2017-08-26T09:22:57.611Z,29.20
2017-08-26T09:25:25.234Z,29.70
2017-08-26T09:27:52.782Z,30.70
2017-08-26T09:30:20.391Z,31.10
2017-08-26T09:32:47.946Z,31.80
2017-08-26T09:35:15.521Z,32.50
2017-08-26T09:37:43.076Z,32.70
2017-08-26T09:40:10.674Z,33.20
2017-08-26T09:42:38.228Z,33.50
2017-08-26T09:45:05.804Z,33.50
2017-08-26T09:47:33.382Z,33.30
2017-08-26T09:50:00.999Z,33.60
2017-08-26T09:52:28.593Z,33.90
2017-08-26T09:54:56.158Z,34.40
2017-08-26T09:57:23.716Z,34.80
2017-08-26T09:59:51.332Z,34.80
2017-08-26T10:02:20.459Z,34.60
2017-08-26T10:04:50.565Z,33.60
2017-08-26T10:07:18.224Z,32.50
2017-08-26T10:09:45.770Z,31.60
2017-08-26T10:12:13.485Z,30.90
2017-08-26T10:14:41.065Z,30.40
2017-08-26T10:17:08.627Z,29.90
2017-08-26T10:19:36.218Z,29.30
2017-08-26T10:22:03.883Z,28.70
2017-08-26T10:24:31.445Z,28.30
2017-08-26T10:26:59.031Z,28.10
2017-08-26T10:29:26.590Z,27.70
2017-08-26T10:31:54.155Z,27.20
2017-08-26T10:34:21.735Z,27.10
2017-08-26T10:36:49.306Z,26.90
2017-08-26T10:39:16.873Z,26.80
2017-08-26T10:41:44.427Z,26.60
2017-08-26T10:44:11.988Z,26.30
2017-08-26T10:46:39.575Z,26.20
2017-08-26T10:49:07.154Z,26.20
2017-08-26T10:51:34.755Z,26.40
2017-08-26T10:54:02.300Z,26.50
2017-08-26T10:56:29.885Z,26.50
2017-08-26T10:58:57.470Z,26.50
2017-08-26T11:01:25.106Z,26.70
2017-08-26T11:03:52.693Z,26.90
2017-08-26T11:06:21.044Z,27.20
2017-08-26T11:08:48.753Z,27.20
2017-08-26T11:11:16.346Z,27.10
2017-08-26T11:13:43.912Z,26.90
2017-08-26T11:16:12.416Z,26.70
2017-08-26T11:18:39.965Z,26.70
2017-08-26T11:21:07.546Z,26.80
2017-08-26T11:23:35.147Z,27.10
2017-08-26T11:26:02.669Z,27.30
2017-08-26T11:28:30.259Z,27.70
2017-08-26T11:30:57.846Z,28.10
2017-08-26T11:33:25.413Z,28.30
2017-08-26T11:35:52.990Z,28.60
2017-08-26T11:38:20.602Z,28.50
2017-08-26T11:40:48.230Z,28.70
2017-08-26T11:43:15.794Z,28.90
2017-08-26T11:45:43.376Z,29.40
2017-08-26T11:48:10.956Z,30.30
2017-08-26T11:50:38.552Z,30.70
2017-08-26T11:53:06.144Z,31.10
2017-08-26T11:55:33.780Z,31.40
2017-08-26T11:58:01.342Z,31.40
2017-08-26T12:00:28.914Z,31.10
2017-08-26T12:02:56.513Z,31.10
2017-08-26T12:05:24.085Z,30.90
2017-08-26T12:07:51.644Z,30.90
2017-08-26T12:10:19.240Z,30.70
2017-08-26T12:12:46.826Z,30.40
2017-08-26T12:15:14.409Z,30.40
2017-08-26T12:17:42.006Z,30.40
2017-08-26T12:20:09.583Z,30.20
2017-08-26T12:22:37.167Z,30.20
2017-08-26T12:25:04.765Z,30.00
2017-08-26T12:27:33.110Z,29.60
2017-08-26T12:30:00.670Z,29.60
2017-08-26T12:32:28.250Z,29.20
2017-08-26T12:34:55.855Z,28.90
2017-08-26T12:37:23.426Z,28.60
2017-08-26T12:39:51.022Z,28.50
2017-08-26T12:42:18.622Z,28.60
2017-08-26T12:44:46.194Z,28.50
2017-08-26T12:47:13.770Z,28.60
2017-08-26T12:49:41.391Z,28.60
2017-08-26T12:52:08.974Z,28.70
2017-08-26T12:54:36.539Z,28.60
2017-08-26T12:57:04.142Z,28.50
2017-08-26T12:59:31.726Z,28.10
2017-08-26T13:01:59.299Z,28.00
2017-08-26T13:04:26.870Z,27.90
2017-08-26T13:06:54.457Z,27.90
2017-08-26T13:09:22.034Z,27.90
2017-08-26T13:11:49.846Z,28.10
2017-08-26T13:14:17.434Z,28.40
2017-08-26T13:16:45.069Z,28.70
2017-08-26T13:19:12.646Z,28.70
2017-08-26T13:21:40.220Z,28.60
2017-08-26T13:24:07.807Z,28.40
2017-08-26T13:26:35.386Z,28.20
2017-08-26T13:29:02.985Z,28.00
2017-08-26T13:31:30.585Z,28.00
2017-08-26T13:33:58.149Z,28.10
2017-08-26T13:36:25.749Z,28.40
2017-08-26T13:38:53.293Z,28.70
2017-08-26T13:41:20.899Z,28.70
2017-08-26T13:43:48.485Z,28.70
2017-08-26T13:46:16.062Z,28.90
2017-08-26T13:48:43.668Z,28.80
2017-08-26T13:51:12.023Z,28.70
2017-08-26T13:53:39.581Z,28.70
2017-08-26T13:56:07.150Z,28.80
2017-08-26T13:58:34.812Z,29.00
2017-08-26T14:01:02.378Z,29.00
2017-08-26T14:03:30.006Z,29.00
2017-08-26T14:05:57.580Z,29.10
2017-08-26T14:08:25.139Z,29.00
2017-08-26T14:10:52.717Z,28.90
2017-08-26T14:13:22.384Z,29.00
2017-08-26T14:15:49.966Z,28.90
2017-08-26T14:18:17.526Z,28.70
2017-08-26T14:20:45.106Z,28.60
2017-08-26T14:23:12.664Z,28.50
2017-08-26T14:25:40.245Z,28.10
2017-08-26T14:28:08.599Z,27.80
2017-08-26T14:30:36.167Z,27.80
2017-08-26T14:33:03.743Z,27.90
2017-08-26T14:35:31.318Z,27.80
2017-08-26T14:37:58.899Z,27.80
2017-08-26T14:40:26.457Z,27.90
2017-08-26T14:42:54.018Z,27.90
2017-08-26T14:45:21.597Z,27.90
2017-08-26T14:47:49.189Z,27.90
2017-08-26T14:50:16.794Z,27.90
2017-08-26T14:52:44.390Z,27.90
2017-08-26T14:55:11.955Z,27.90
2017-08-26T14:57:39.534Z,27.90
2017-08-26T15:00:07.101Z,28.00
2017-08-26T15:02:34.701Z,28.20
2017-08-26T15:05:02.317Z,28.30
2017-08-26T15:07:29.880Z,28.20
2017-08-26T15:09:57.465Z,28.20
2017-08-26T15:12:25.046Z,28.10
2017-08-26T15:14:52.631Z,28.00
2017-08-26T15:17:20.238Z,27.90
2017-08-26T15:19:47.818Z,28.00
2017-08-26T15:22:15.424Z,28.00
2017-08-26T15:24:42.991Z,27.90
2017-08-26T15:27:10.577Z,27.60
2017-08-26T15:29:38.153Z,27.40
2017-08-26T15:32:05.736Z,27.20
2017-08-26T15:34:33.318Z,27.00
2017-08-26T15:37:00.901Z,26.90
2017-08-26T15:39:28.480Z,27.00
2017-08-26T15:41:56.106Z,27.20
2017-08-26T15:44:23.693Z,27.20
2017-08-26T15:46:51.287Z,27.10
2017-08-26T15:49:18.869Z,27.10
2017-08-26T15:51:46.474Z,27.00
2017-08-26T15:54:14.038Z,26.80
2017-08-26T15:56:41.707Z,26.70
2017-08-26T15:59:09.298Z,26.70
2017-08-26T16:01:37.625Z,26.50
2017-08-26T16:04:05.228Z,26.50
2017-08-26T16:06:33.545Z,26.40
2017-08-26T16:09:01.118Z,26.30
2017-08-26T16:11:28.754Z,26.30
2017-08-26T16:13:56.364Z,26.20
2017-08-26T16:16:23.916Z,26.30
2017-08-26T16:18:51.498Z,26.40
2017-08-26T16:21:19.065Z,26.50
2017-08-26T16:23:46.634Z,26.50
2017-08-26T16:26:14.228Z,26.50
2017-08-26T16:28:41.797Z,26.40
2017-08-26T16:31:09.362Z,26.30
2017-08-26T16:33:36.982Z,26.20
2017-08-26T16:36:04.558Z,26.30
2017-08-26T16:38:32.882Z,26.20
2017-08-26T16:41:00.457Z,26.20
2017-08-26T16:43:28.065Z,26.10
2017-08-26T16:45:55.672Z,25.90
2017-08-26T16:48:23.341Z,25.90
2017-08-26T16:50:50.930Z,25.90
2017-08-26T16:53:18.533Z,25.90
2017-08-26T16:55:46.098Z,25.90
2017-08-26T16:58:13.761Z,26.00
2017-08-26T17:00:41.348Z,26.00
2017-08-26T17:03:08.921Z,26.00
2017-08-26T17:05:36.517Z,25.90
2017-08-26T17:08:04.101Z,25.80
2017-08-26T17:10:31.758Z,25.70
2017-08-26T17:12:59.403Z,25.50
2017-08-26T17:15:27.011Z,25.40
2017-08-26T17:17:54.597Z,25.30
2017-08-26T17:20:22.156Z,25.30
2017-08-26T17:22:49.730Z,25.10
2017-08-26T17:25:18.140Z,25.00
2017-08-26T17:27:45.697Z,24.90
2017-08-26T17:30:13.283Z,24.90
2017-08-26T17:32:40.893Z,24.90
2017-08-26T17:35:08.545Z,24.80
2017-08-26T17:37:36.127Z,24.70
2017-08-26T17:40:03.744Z,24.60
2017-08-26T17:42:31.310Z,24.60
2017-08-26T17:44:58.985Z,24.60
2017-08-26T17:47:26.542Z,24.50
2017-08-26T17:49:54.126Z,24.50
2017-08-26T17:52:22.475Z,24.30
2017-08-26T17:54:50.051Z,24.30
2017-08-26T17:57:17.614Z,24.20
2017-08-26T17:59:45.226Z,24.10
2017-08-26T18:02:12.788Z,23.90
2017-08-26T18:04:40.391Z,23.80
2017-08-26T18:07:07.959Z,23.70
2017-08-26T18:09:35.535Z,23.60
2017-08-26T18:12:03.203Z,23.50
2017-08-26T18:14:31.580Z,23.30
2017-08-26T18:16:59.171Z,23.20
2017-08-26T18:19:27.164Z,23.10
2017-08-26T18:21:54.746Z,23.00
2017-08-26T18:24:22.355Z,22.90
2017-08-26T18:26:49.934Z,22.70
2017-08-26T18:29:17.501Z,22.60
2017-08-26T18:31:45.087Z,22.40
2017-08-26T18:34:12.770Z,22.30
2017-08-26T18:36:40.321Z,22.10
2017-08-26T18:39:07.889Z,22.00
2017-08-26T18:41:36.233Z,21.80
2017-08-26T18:44:03.957Z,21.80
2017-08-26T18:46:31.552Z,21.70
2017-08-26T18:48:59.122Z,21.60
2017-08-26T18:51:26.768Z,21.40
2017-08-26T18:53:54.366Z,21.30
2017-08-26T18:56:22.041Z,21.20
2017-08-26T18:58:49.646Z,21.10
2017-08-26T19:01:17.213Z,21.20
2017-08-26T19:03:44.798Z,21.10
2017-08-26T19:06:12.425Z,21.10
2017-08-26T19:08:40.018Z,21.00
2017-08-26T19:11:07.606Z,21.00
2017-08-26T19:13:35.211Z,20.90
2017-08-26T19:16:04.104Z,20.80
2017-08-26T19:18:31.666Z,20.70
2017-08-26T19:20:59.247Z,20.70
2017-08-26T19:23:26.921Z,20.60
2017-08-26T19:25:54.490Z,20.50
2017-08-26T19:28:22.088Z,20.50
2017-08-26T19:30:50.458Z,20.30
2017-08-26T19:33:18.045Z,20.30
2017-08-26T19:35:45.772Z,20.20
2017-08-26T19:38:13.347Z,20.20
2017-08-26T19:40:41.676Z,20.00
2017-08-26T19:43:09.282Z,20.00
2017-08-26T19:45:36.891Z,20.00
2017-08-26T19:48:04.505Z,20.00
2017-08-26T19:50:32.085Z,20.00
2017-08-26T19:52:59.682Z,19.90
2017-08-26T19:55:27.337Z,19.90
2017-08-26T19:57:54.923Z,19.80
2017-08-26T20:00:22.507Z,19.80
2017-08-26T20:02:50.158Z,19.70
2017-08-26T20:05:17.746Z,19.70
2017-08-26T20:07:45.329Z,19.70
2017-08-26T20:10:12.933Z,19.70
2017-08-26T20:12:40.555Z,19.80
2017-08-26T20:15:08.182Z,19.80
2017-08-26T20:17:35.774Z,19.70
2017-08-26T20:20:03.349Z,19.60
2017-08-26T20:22:30.968Z,19.50
2017-08-26T20:24:58.531Z,19.50
2017-08-26T20:27:26.158Z,19.50
2017-08-26T20:29:53.717Z,19.50
2017-08-26T20:32:21.334Z,19.50
2017-08-26T20:34:48.905Z,19.40
2017-08-26T20:37:16.481Z,19.40
2017-08-26T20:39:44.074Z,19.40
2017-08-26T20:42:11.645Z,19.40
2017-08-26T20:44:39.231Z,19.30
2017-08-26T20:47:06.799Z,19.20
2017-08-26T20:49:34.417Z,19.20
2017-08-26T20:52:02.005Z,19.10
2017-08-26T20:54:29.594Z,19.10
2017-08-26T20:56:57.162Z,19.10
2017-08-26T20:59:24.759Z,19.00
2017-08-26T21:01:52.406Z,19.00
2017-08-26T21:04:19.986Z,19.00
2017-08-26T21:06:47.549Z,18.90
2017-08-26T21:09:15.145Z,18.90
2017-08-26T21:11:42.745Z,18.80
2017-08-26T21:14:10.325Z,18.80
2017-08-26T21:16:37.914Z,18.70
2017-08-26T21:19:05.514Z,18.70
2017-08-26T21:21:33.117Z,18.80
2017-08-26T21:24:00.746Z,18.70
2017-08-26T21:26:28.305Z,18.60
2017-08-26T21:28:55.922Z,18.60
2017-08-26T21:31:23.509Z,18.60
2017-08-26T21:33:51.078Z,18.60
2017-08-26T21:36:18.697Z,18.50
2017-08-26T21:38:46.279Z,18.40
2017-08-26T21:41:13.885Z,18.40
2017-08-26T21:43:41.458Z,18.30
2017-08-26T21:46:09.054Z,18.30
2017-08-26T21:48:36.626Z,18.30
2017-08-26T21:51:04.230Z,18.30
2017-08-26T21:53:31.822Z,18.20
2017-08-26T21:55:59.398Z,18.10
2017-08-26T21:58:27.745Z,18.00
2017-08-26T22:00:55.318Z,18.00
2017-08-26T22:03:22.908Z,18.10
2017-08-26T22:05:51.253Z,18.10
2017-08-26T22:08:18.845Z,18.10
2017-08-26T22:10:46.436Z,18.10
2017-08-26T22:13:14.029Z,18.00
2017-08-26T22:15:41.604Z,18.00
2017-08-26T22:18:09.226Z,18.00
2017-08-26T22:20:36.818Z,17.90
2017-08-26T22:23:04.344Z,17.90
2017-08-26T22:25:31.933Z,17.90
2017-08-26T22:27:59.494Z,17.90
2017-08-26T22:30:27.076Z,17.80
2017-08-26T22:32:54.643Z,17.90
2017-08-26T22:35:22.310Z,17.90
2017-08-26T22:37:49.905Z,17.90
2017-08-26T22:40:17.483Z,17.80
2017-08-26T22:42:45.072Z,17.80
2017-08-26T22:45:12.640Z,17.80
2017-08-26T22:47:40.206Z,17.80
2017-08-26T22:50:07.783Z,17.80
2017-08-26T22:52:36.146Z,17.70
2017-08-26T22:55:03.703Z,17.70
2017-08-26T22:57:31.286Z,17.70
2017-08-26T22:59:58.853Z,17.70
2017-08-26T23:02:26.420Z,17.70
2017-08-26T23:04:54.005Z,17.70
2017-08-26T23:07:21.588Z,17.70
2017-08-26T23:09:49.150Z,17.80
2017-08-26T23:12:16.726Z,17.80
2017-08-26T23:14:44.425Z,17.80
2017-08-26T23:17:12.001Z,17.70
2017-08-26T23:19:39.579Z,17.80
2017-08-26T23:22:07.155Z,17.80
2017-08-26T23:24:34.744Z,17.90
2017-08-26T23:27:02.341Z,17.90
2017-08-26T23:29:29.921Z,17.80
2017-08-26T23:31:57.541Z,17.90
2017-08-26T23:34:25.133Z,17.90
2017-08-26T23:36:52.706Z,17.90
2017-08-26T23:39:20.293Z,17.90
2017-08-26T23:41:47.906Z,17.90
2017-08-26T23:44:15.485Z,17.90
2017-08-26T23:46:43.081Z,18.00
2017-08-26T23:49:10.654Z,18.00
2017-08-26T23:51:38.307Z,18.10
2017-08-26T23:54:05.878Z,18.10
2017-08-26T23:56:33.452Z,18.10
2017-08-26T23:59:01.801Z,18.10
